sensor_id;sensor_type;location;lat;lon;timestamp;P1;durP1;ratioP1;P2;durP2;ratioP2
74328;SDS011;62745;51.060;13.786;2024-03-22T00:00:02;10.82;;;5.20;;
74328;SDS011;62745;51.060;13.786;2024-03-22T00:02:29;11.43;;;5.30;;
74328;SDS011;62745;51.060;13.786;2024-03-22T00:04:54;10.98;;;4.68;;
74328;SDS011;62745;51.060;13.786;2024-03-22T00:07:20;11.88;;;5.18;;
74328;SDS011;62745;51.060;13.786;2024-03-22T00:09:45;13.05;;;5.35;;
74328;SDS011;62745;51.060;13.786;2024-03-22T00:12:11;10.48;;;5.00;;
74328;SDS011;62745;51.060;13.786;2024-03-22T00:14:36;13.05;;;5.63;;
74328;SDS011;62745;51.060;13.786;2024-03-22T00:17:02;12.07;;;5.60;;
74328;SDS011;62745;51.060;13.786;2024-03-22T00:19:27;12.30;;;5.35;;
74328;SDS011;62745;51.060;13.786;2024-03-22T00:21:53;13.75;;;5.65;;
74328;SDS011;62745;51.060;13.786;2024-03-22T00:24:18;12.20;;;5.45;;
74328;SDS011;62745;51.060;13.786;2024-03-22T00:26:44;11.20;;;4.70;;
74328;SDS011;62745;51.060;13.786;2024-03-22T00:29:09;10.75;;;4.80;;
74328;SDS011;62745;51.060;13.786;2024-03-22T00:31:35;11.90;;;5.10;;
74328;SDS011;62745;51.060;13.786;2024-03-22T00:34:00;10.75;;;5.13;;
74328;SDS011;62745;51.060;13.786;2024-03-22T00:36:26;12.63;;;5.30;;
74328;SDS011;62745;51.060;13.786;2024-03-22T00:38:51;10.65;;;5.30;;
74328;SDS011;62745;51.060;13.786;2024-03-22T00:41:17;10.65;;;5.07;;
74328;SDS011;62745;51.060;13.786;2024-03-22T00:43:42;15.35;;;6.30;;
74328;SDS011;62745;51.060;13.786;2024-03-22T00:46:08;11.40;;;5.13;;
74328;SDS011;62745;51.060;13.786;2024-03-22T00:48:33;13.85;;;5.50;;
74328;SDS011;62745;51.060;13.786;2024-03-22T00:51:00;10.93;;;5.13;;
74328;SDS011;62745;51.060;13.786;2024-03-22T00:53:26;12.13;;;5.65;;
74328;SDS011;62745;51.060;13.786;2024-03-22T00:55:51;13.02;;;6.32;;
74328;SDS011;62745;51.060;13.786;2024-03-22T00:58:18;15.25;;;5.82;;
74328;SDS011;62745;51.060;13.786;2024-03-22T01:00:44;12.02;;;5.47;;
74328;SDS011;62745;51.060;13.786;2024-03-22T01:03:10;14.20;;;5.35;;
74328;SDS011;62745;51.060;13.786;2024-03-22T01:05:35;12.63;;;5.10;;
74328;SDS011;62745;51.060;13.786;2024-03-22T01:08:01;15.75;;;5.85;;
74328;SDS011;62745;51.060;13.786;2024-03-22T01:10:26;12.43;;;5.78;;
74328;SDS011;62745;51.060;13.786;2024-03-22T01:12:52;13.20;;;6.03;;
74328;SDS011;62745;51.060;13.786;2024-03-22T01:15:18;12.73;;;5.70;;
74328;SDS011;62745;51.060;13.786;2024-03-22T01:17:43;16.35;;;5.63;;
74328;SDS011;62745;51.060;13.786;2024-03-22T01:20:09;14.40;;;5.28;;
74328;SDS011;62745;51.060;13.786;2024-03-22T01:22:35;14.00;;;5.75;;
74328;SDS011;62745;51.060;13.786;2024-03-22T01:25:00;13.80;;;6.13;;
74328;SDS011;62745;51.060;13.786;2024-03-22T01:27:26;12.32;;;5.70;;
74328;SDS011;62745;51.060;13.786;2024-03-22T01:29:51;11.77;;;5.40;;
74328;SDS011;62745;51.060;13.786;2024-03-22T01:32:28;12.88;;;5.68;;
74328;SDS011;62745;51.060;13.786;2024-03-22T01:34:54;15.05;;;5.80;;
74328;SDS011;62745;51.060;13.786;2024-03-22T01:37:19;12.05;;;5.13;;
74328;SDS011;62745;51.060;13.786;2024-03-22T01:39:45;15.15;;;6.03;;
74328;SDS011;62745;51.060;13.786;2024-03-22T01:42:10;14.23;;;6.38;;
74328;SDS011;62745;51.060;13.786;2024-03-22T01:44:36;16.95;;;5.95;;
74328;SDS011;62745;51.060;13.786;2024-03-22T01:47:01;13.90;;;5.63;;
74328;SDS011;62745;51.060;13.786;2024-03-22T01:49:27;15.05;;;5.63;;
74328;SDS011;62745;51.060;13.786;2024-03-22T01:51:54;13.88;;;6.15;;
74328;SDS011;62745;51.060;13.786;2024-03-22T01:54:20;15.23;;;5.65;;
74328;SDS011;62745;51.060;13.786;2024-03-22T01:56:47;12.93;;;5.28;;
74328;SDS011;62745;51.060;13.786;2024-03-22T01:59:13;13.85;;;5.63;;
74328;SDS011;62745;51.060;13.786;2024-03-22T02:01:39;13.02;;;5.60;;
74328;SDS011;62745;51.060;13.786;2024-03-22T02:04:05;14.30;;;5.30;;
74328;SDS011;62745;51.060;13.786;2024-03-22T02:06:31;13.07;;;5.90;;
74328;SDS011;62745;51.060;13.786;2024-03-22T02:08:57;13.75;;;5.65;;
74328;SDS011;62745;51.060;13.786;2024-03-22T02:11:23;14.65;;;5.68;;
74328;SDS011;62745;51.060;13.786;2024-03-22T02:13:50;14.30;;;5.72;;
74328;SDS011;62745;51.060;13.786;2024-03-22T02:16:16;13.35;;;5.78;;
74328;SDS011;62745;51.060;13.786;2024-03-22T02:18:42;11.35;;;5.22;;
74328;SDS011;62745;51.060;13.786;2024-03-22T02:21:07;13.75;;;5.43;;
74328;SDS011;62745;51.060;13.786;2024-03-22T02:23:33;13.52;;;5.68;;
74328;SDS011;62745;51.060;13.786;2024-03-22T02:25:59;12.48;;;5.57;;
74328;SDS011;62745;51.060;13.786;2024-03-22T02:28:25;12.23;;;5.05;;
74328;SDS011;62745;51.060;13.786;2024-03-22T02:30:50;12.07;;;5.45;;
74328;SDS011;62745;51.060;13.786;2024-03-22T02:33:16;11.73;;;5.13;;
74328;SDS011;62745;51.060;13.786;2024-03-22T02:35:42;11.70;;;4.95;;
74328;SDS011;62745;51.060;13.786;2024-03-22T02:38:07;12.70;;;5.13;;
74328;SDS011;62745;51.060;13.786;2024-03-22T02:40:33;13.60;;;5.22;;
74328;SDS011;62745;51.060;13.786;2024-03-22T02:42:58;13.02;;;5.63;;
74328;SDS011;62745;51.060;13.786;2024-03-22T02:45:24;11.02;;;5.07;;
74328;SDS011;62745;51.060;13.786;2024-03-22T02:47:50;12.02;;;5.68;;
74328;SDS011;62745;51.060;13.786;2024-03-22T02:50:15;12.95;;;5.10;;
74328;SDS011;62745;51.060;13.786;2024-03-22T02:52:41;14.18;;;5.40;;
74328;SDS011;62745;51.060;13.786;2024-03-22T02:55:06;13.60;;;5.55;;
74328;SDS011;62745;51.060;13.786;2024-03-22T02:57:33;13.60;;;5.93;;
74328;SDS011;62745;51.060;13.786;2024-03-22T02:59:59;14.55;;;5.43;;
74328;SDS011;62745;51.060;13.786;2024-03-22T03:02:25;14.10;;;5.78;;
74328;SDS011;62745;51.060;13.786;2024-03-22T03:04:51;12.80;;;4.97;;
74328;SDS011;62745;51.060;13.786;2024-03-22T03:07:16;11.27;;;5.05;;
74328;SDS011;62745;51.060;13.786;2024-03-22T03:09:42;16.48;;;5.82;;
74328;SDS011;62745;51.060;13.786;2024-03-22T03:12:07;10.70;;;5.20;;
74328;SDS011;62745;51.060;13.786;2024-03-22T03:14:33;13.93;;;5.43;;
74328;SDS011;62745;51.060;13.786;2024-03-22T03:16:58;14.65;;;6.07;;
74328;SDS011;62745;51.060;13.786;2024-03-22T03:19:24;15.25;;;5.60;;
74328;SDS011;62745;51.060;13.786;2024-03-22T03:21:49;15.85;;;6.13;;
74328;SDS011;62745;51.060;13.786;2024-03-22T03:24:15;13.00;;;5.25;;
74328;SDS011;62745;51.060;13.786;2024-03-22T03:26:40;12.10;;;5.47;;
74328;SDS011;62745;51.060;13.786;2024-03-22T03:29:06;13.02;;;5.53;;
74328;SDS011;62745;51.060;13.786;2024-03-22T03:31:32;13.32;;;5.50;;
74328;SDS011;62745;51.060;13.786;2024-03-22T03:33:57;11.52;;;5.03;;
74328;SDS011;62745;51.060;13.786;2024-03-22T03:36:23;10.80;;;4.55;;
74328;SDS011;62745;51.060;13.786;2024-03-22T03:38:48;13.18;;;4.38;;
74328;SDS011;62745;51.060;13.786;2024-03-22T03:41:14;11.55;;;5.10;;
74328;SDS011;62745;51.060;13.786;2024-03-22T03:43:40;12.15;;;4.95;;
74328;SDS011;62745;51.060;13.786;2024-03-22T03:46:06;11.68;;;5.18;;
74328;SDS011;62745;51.060;13.786;2024-03-22T03:48:31;12.23;;;5.25;;
74328;SDS011;62745;51.060;13.786;2024-03-22T03:50:57;10.45;;;4.85;;
74328;SDS011;62745;51.060;13.786;2024-03-22T03:53:28;14.40;;;5.72;;
74328;SDS011;62745;51.060;13.786;2024-03-22T03:55:53;14.45;;;5.03;;
74328;SDS011;62745;51.060;13.786;2024-03-22T03:58:19;12.23;;;5.05;;
74328;SDS011;62745;51.060;13.786;2024-03-22T04:00:44;13.20;;;5.18;;
74328;SDS011;62745;51.060;13.786;2024-03-22T04:03:10;12.60;;;5.63;;
74328;SDS011;62745;51.060;13.786;2024-03-22T04:05:35;12.57;;;5.90;;
74328;SDS011;62745;51.060;13.786;2024-03-22T04:08:01;11.95;;;5.53;;
74328;SDS011;62745;51.060;13.786;2024-03-22T04:10:26;14.13;;;5.78;;
74328;SDS011;62745;51.060;13.786;2024-03-22T04:12:52;12.13;;;5.68;;
74328;SDS011;62745;51.060;13.786;2024-03-22T04:15:17;12.82;;;5.82;;
74328;SDS011;62745;51.060;13.786;2024-03-22T04:17:43;15.52;;;6.13;;
74328;SDS011;62745;51.060;13.786;2024-03-22T04:20:08;14.93;;;5.72;;
74328;SDS011;62745;51.060;13.786;2024-03-22T04:22:35;14.68;;;6.28;;
74328;SDS011;62745;51.060;13.786;2024-03-22T04:25:00;12.02;;;5.55;;
74328;SDS011;62745;51.060;13.786;2024-03-22T04:27:26;12.25;;;4.95;;
74328;SDS011;62745;51.060;13.786;2024-03-22T04:29:51;13.13;;;5.30;;
74328;SDS011;62745;51.060;13.786;2024-03-22T04:32:17;12.75;;;5.50;;
74328;SDS011;62745;51.060;13.786;2024-03-22T04:34:42;13.60;;;5.85;;
74328;SDS011;62745;51.060;13.786;2024-03-22T04:37:08;14.40;;;5.03;;
74328;SDS011;62745;51.060;13.786;2024-03-22T04:39:34;17.40;;;5.57;;
74328;SDS011;62745;51.060;13.786;2024-03-22T04:42:03;14.68;;;5.93;;
74328;SDS011;62745;51.060;13.786;2024-03-22T04:44:29;14.25;;;5.70;;
74328;SDS011;62745;51.060;13.786;2024-03-22T04:46:54;14.50;;;6.22;;
74328;SDS011;62745;51.060;13.786;2024-03-22T04:49:20;15.15;;;5.93;;
74328;SDS011;62745;51.060;13.786;2024-03-22T04:51:45;15.48;;;6.32;;
74328;SDS011;62745;51.060;13.786;2024-03-22T04:54:12;14.20;;;5.57;;
74328;SDS011;62745;51.060;13.786;2024-03-22T04:56:39;13.60;;;5.55;;
74328;SDS011;62745;51.060;13.786;2024-03-22T04:59:05;14.18;;;5.15;;
74328;SDS011;62745;51.060;13.786;2024-03-22T05:01:30;13.70;;;6.10;;
74328;SDS011;62745;51.060;13.786;2024-03-22T05:03:56;19.25;;;7.20;;
74328;SDS011;62745;51.060;13.786;2024-03-22T05:06:21;16.80;;;7.15;;
74328;SDS011;62745;51.060;13.786;2024-03-22T05:08:47;15.00;;;7.03;;
74328;SDS011;62745;51.060;13.786;2024-03-22T05:11:12;16.45;;;6.25;;
74328;SDS011;62745;51.060;13.786;2024-03-22T05:13:38;17.15;;;5.88;;
74328;SDS011;62745;51.060;13.786;2024-03-22T05:16:05;16.27;;;6.28;;
74328;SDS011;62745;51.060;13.786;2024-03-22T05:18:31;16.80;;;6.57;;
74328;SDS011;62745;51.060;13.786;2024-03-22T05:20:57;17.15;;;6.63;;
74328;SDS011;62745;51.060;13.786;2024-03-22T05:23:22;15.82;;;6.22;;
74328;SDS011;62745;51.060;13.786;2024-03-22T05:25:48;16.27;;;6.57;;
74328;SDS011;62745;51.060;13.786;2024-03-22T05:28:13;15.00;;;6.72;;
74328;SDS011;62745;51.060;13.786;2024-03-22T05:30:39;16.58;;;6.93;;
74328;SDS011;62745;51.060;13.786;2024-03-22T05:33:04;15.75;;;6.68;;
74328;SDS011;62745;51.060;13.786;2024-03-22T05:35:30;15.18;;;6.28;;
74328;SDS011;62745;51.060;13.786;2024-03-22T05:37:55;13.75;;;6.20;;
74328;SDS011;62745;51.060;13.786;2024-03-22T05:40:21;21.23;;;7.13;;
74328;SDS011;62745;51.060;13.786;2024-03-22T05:42:47;17.50;;;6.32;;
74328;SDS011;62745;51.060;13.786;2024-03-22T05:45:12;15.05;;;6.90;;
74328;SDS011;62745;51.060;13.786;2024-03-22T05:47:38;13.98;;;6.07;;
74328;SDS011;62745;51.060;13.786;2024-03-22T05:50:04;17.88;;;6.85;;
74328;SDS011;62745;51.060;13.786;2024-03-22T05:52:32;16.00;;;6.60;;
74328;SDS011;62745;51.060;13.786;2024-03-22T05:54:58;15.82;;;6.82;;
74328;SDS011;62745;51.060;13.786;2024-03-22T05:57:24;16.48;;;7.30;;
74328;SDS011;62745;51.060;13.786;2024-03-22T05:59:49;14.95;;;6.15;;
74328;SDS011;62745;51.060;13.786;2024-03-22T06:02:14;15.50;;;7.15;;
74328;SDS011;62745;51.060;13.786;2024-03-22T06:04:41;22.15;;;7.80;;
74328;SDS011;62745;51.060;13.786;2024-03-22T06:07:07;14.90;;;6.32;;
74328;SDS011;62745;51.060;13.786;2024-03-22T06:09:33;22.77;;;7.43;;
74328;SDS011;62745;51.060;13.786;2024-03-22T06:12:18;17.02;;;7.25;;
74328;SDS011;62745;51.060;13.786;2024-03-22T06:14:44;12.63;;;6.38;;
74328;SDS011;62745;51.060;13.786;2024-03-22T06:17:11;16.67;;;7.43;;
74328;SDS011;62745;51.060;13.786;2024-03-22T06:19:37;14.27;;;6.10;;
74328;SDS011;62745;51.060;13.786;2024-03-22T06:22:05;14.20;;;6.35;;
74328;SDS011;62745;51.060;13.786;2024-03-22T06:24:30;14.25;;;6.25;;
74328;SDS011;62745;51.060;13.786;2024-03-22T06:26:56;12.25;;;6.10;;
74328;SDS011;62745;51.060;13.786;2024-03-22T06:29:21;12.50;;;5.88;;
74328;SDS011;62745;51.060;13.786;2024-03-22T06:31:47;12.98;;;6.45;;
74328;SDS011;62745;51.060;13.786;2024-03-22T06:34:15;12.40;;;6.22;;
74328;SDS011;62745;51.060;13.786;2024-03-22T06:36:42;13.80;;;6.30;;
74328;SDS011;62745;51.060;13.786;2024-03-22T06:39:08;14.10;;;6.13;;
74328;SDS011;62745;51.060;13.786;2024-03-22T06:41:35;12.85;;;6.50;;
74328;SDS011;62745;51.060;13.786;2024-03-22T06:44:01;12.07;;;5.68;;
74328;SDS011;62745;51.060;13.786;2024-03-22T06:46:27;14.98;;;6.25;;
74328;SDS011;62745;51.060;13.786;2024-03-22T06:48:53;12.48;;;5.97;;
74328;SDS011;62745;51.060;13.786;2024-03-22T06:51:18;13.18;;;6.13;;
74328;SDS011;62745;51.060;13.786;2024-03-22T06:53:44;15.68;;;6.32;;
74328;SDS011;62745;51.060;13.786;2024-03-22T06:56:11;12.68;;;5.82;;
74328;SDS011;62745;51.060;13.786;2024-03-22T06:58:39;10.98;;;5.68;;
74328;SDS011;62745;51.060;13.786;2024-03-22T07:01:05;12.90;;;6.18;;
74328;SDS011;62745;51.060;13.786;2024-03-22T07:03:30;11.90;;;5.22;;
74328;SDS011;62745;51.060;13.786;2024-03-22T07:05:56;11.88;;;5.68;;
74328;SDS011;62745;51.060;13.786;2024-03-22T07:08:23;12.77;;;5.30;;
74328;SDS011;62745;51.060;13.786;2024-03-22T07:10:50;14.43;;;5.40;;
74328;SDS011;62745;51.060;13.786;2024-03-22T07:13:16;10.25;;;5.05;;
74328;SDS011;62745;51.060;13.786;2024-03-22T07:15:41;10.20;;;4.65;;
74328;SDS011;62745;51.060;13.786;2024-03-22T07:18:10;11.02;;;4.97;;
74328;SDS011;62745;51.060;13.786;2024-03-22T07:20:35;10.27;;;5.18;;
74328;SDS011;62745;51.060;13.786;2024-03-22T07:23:01;13.25;;;4.57;;
74328;SDS011;62745;51.060;13.786;2024-03-22T07:28:47;10.55;;;4.65;;
74328;SDS011;62745;51.060;13.786;2024-03-22T07:31:13;12.57;;;4.47;;
74328;SDS011;62745;51.060;13.786;2024-03-22T07:37:26;9.68;;;4.25;;
74328;SDS011;62745;51.060;13.786;2024-03-22T07:39:51;10.35;;;4.13;;
74328;SDS011;62745;51.060;13.786;2024-03-22T07:42:17;10.15;;;3.85;;
74328;SDS011;62745;51.060;13.786;2024-03-22T07:44:42;9.13;;;4.38;;
74328;SDS011;62745;51.060;13.786;2024-03-22T07:47:08;10.80;;;3.85;;
74328;SDS011;62745;51.060;13.786;2024-03-22T07:49:34;9.90;;;3.85;;
74328;SDS011;62745;51.060;13.786;2024-03-22T07:52:00;9.23;;;3.75;;
74328;SDS011;62745;51.060;13.786;2024-03-22T07:54:25;10.13;;;4.22;;
74328;SDS011;62745;51.060;13.786;2024-03-22T07:56:51;7.25;;;3.80;;
74328;SDS011;62745;51.060;13.786;2024-03-22T07:59:16;7.65;;;3.92;;
74328;SDS011;62745;51.060;13.786;2024-03-22T08:01:42;10.13;;;4.00;;
74328;SDS011;62745;51.060;13.786;2024-03-22T08:04:07;7.85;;;3.60;;
74328;SDS011;62745;51.060;13.786;2024-03-22T08:06:33;10.85;;;3.60;;
74328;SDS011;62745;51.060;13.786;2024-03-22T08:08:58;10.32;;;4.45;;
74328;SDS011;62745;51.060;13.786;2024-03-22T08:11:24;10.05;;;3.75;;
74328;SDS011;62745;51.060;13.786;2024-03-22T08:13:50;9.63;;;4.00;;
74328;SDS011;62745;51.060;13.786;2024-03-22T08:16:15;10.25;;;4.72;;
74328;SDS011;62745;51.060;13.786;2024-03-22T08:18:41;8.95;;;3.85;;
74328;SDS011;62745;51.060;13.786;2024-03-22T08:21:06;9.20;;;4.25;;
74328;SDS011;62745;51.060;13.786;2024-03-22T08:23:32;9.07;;;3.97;;
74328;SDS011;62745;51.060;13.786;2024-03-22T08:25:58;12.38;;;4.78;;
74328;SDS011;62745;51.060;13.786;2024-03-22T08:28:23;9.15;;;4.07;;
74328;SDS011;62745;51.060;13.786;2024-03-22T08:30:49;10.80;;;4.38;;
74328;SDS011;62745;51.060;13.786;2024-03-22T08:33:14;13.98;;;5.30;;
74328;SDS011;62745;51.060;13.786;2024-03-22T08:35:40;13.48;;;5.75;;
74328;SDS011;62745;51.060;13.786;2024-03-22T08:38:05;13.48;;;5.32;;
74328;SDS011;62745;51.060;13.786;2024-03-22T08:40:38;13.60;;;5.45;;
74328;SDS011;62745;51.060;13.786;2024-03-22T08:43:04;11.18;;;5.05;;
74328;SDS011;62745;51.060;13.786;2024-03-22T08:45:32;11.98;;;5.10;;
74328;SDS011;62745;51.060;13.786;2024-03-22T08:47:58;12.85;;;5.18;;
74328;SDS011;62745;51.060;13.786;2024-03-22T08:50:23;11.68;;;5.00;;
74328;SDS011;62745;51.060;13.786;2024-03-22T08:52:50;11.65;;;4.65;;
74328;SDS011;62745;51.060;13.786;2024-03-22T08:55:15;10.07;;;5.00;;
74328;SDS011;62745;51.060;13.786;2024-03-22T08:57:41;11.63;;;4.85;;
74328;SDS011;62745;51.060;13.786;2024-03-22T09:00:06;11.02;;;4.88;;
74328;SDS011;62745;51.060;13.786;2024-03-22T09:02:33;9.38;;;4.55;;
74328;SDS011;62745;51.060;13.786;2024-03-22T09:04:59;9.88;;;4.50;;
74328;SDS011;62745;51.060;13.786;2024-03-22T09:07:25;10.15;;;4.60;;
74328;SDS011;62745;51.060;13.786;2024-03-22T09:09:50;15.88;;;4.32;;
74328;SDS011;62745;51.060;13.786;2024-03-22T09:12:16;10.65;;;4.30;;
74328;SDS011;62745;51.060;13.786;2024-03-22T09:14:41;9.15;;;4.30;;
74328;SDS011;62745;51.060;13.786;2024-03-22T09:17:07;10.45;;;4.28;;
74328;SDS011;62745;51.060;13.786;2024-03-22T09:19:32;13.27;;;4.63;;
74328;SDS011;62745;51.060;13.786;2024-03-22T09:21:58;8.82;;;3.72;;
74328;SDS011;62745;51.060;13.786;2024-03-22T09:24:23;9.82;;;4.15;;
74328;SDS011;62745;51.060;13.786;2024-03-22T09:26:49;8.52;;;3.25;;
74328;SDS011;62745;51.060;13.786;2024-03-22T09:29:15;10.57;;;3.92;;
74328;SDS011;62745;51.060;13.786;2024-03-22T09:31:40;9.98;;;4.28;;
74328;SDS011;62745;51.060;13.786;2024-03-22T09:34:06;7.28;;;3.75;;
74328;SDS011;62745;51.060;13.786;2024-03-22T09:36:31;7.70;;;3.53;;
74328;SDS011;62745;51.060;13.786;2024-03-22T09:39:00;10.43;;;3.50;;
74328;SDS011;62745;51.060;13.786;2024-03-22T09:41:29;10.50;;;3.20;;
74328;SDS011;62745;51.060;13.786;2024-03-22T09:43:57;10.35;;;3.42;;
74328;SDS011;62745;51.060;13.786;2024-03-22T09:46:24;8.65;;;3.28;;
74328;SDS011;62745;51.060;13.786;2024-03-22T09:48:50;7.28;;;3.25;;
74328;SDS011;62745;51.060;13.786;2024-03-22T09:51:17;9.52;;;3.33;;
74328;SDS011;62745;51.060;13.786;2024-03-22T09:53:48;7.25;;;3.22;;
74328;SDS011;62745;51.060;13.786;2024-03-22T09:56:14;8.05;;;3.63;;
74328;SDS011;62745;51.060;13.786;2024-03-22T09:58:40;8.13;;;3.20;;
74328;SDS011;62745;51.060;13.786;2024-03-22T10:01:07;7.50;;;3.13;;
74328;SDS011;62745;51.060;13.786;2024-03-22T10:03:33;6.47;;;2.92;;
74328;SDS011;62745;51.060;13.786;2024-03-22T10:05:59;7.50;;;2.90;;
74328;SDS011;62745;51.060;13.786;2024-03-22T10:08:25;6.93;;;3.28;;
74328;SDS011;62745;51.060;13.786;2024-03-22T10:10:50;8.32;;;3.47;;
74328;SDS011;62745;51.060;13.786;2024-03-22T10:13:16;8.05;;;2.85;;
74328;SDS011;62745;51.060;13.786;2024-03-22T10:15:41;8.73;;;3.05;;
74328;SDS011;62745;51.060;13.786;2024-03-22T10:18:07;7.43;;;2.72;;
74328;SDS011;62745;51.060;13.786;2024-03-22T10:20:34;7.07;;;3.10;;
74328;SDS011;62745;51.060;13.786;2024-03-22T10:22:59;8.52;;;2.95;;
74328;SDS011;62745;51.060;13.786;2024-03-22T10:25:25;8.27;;;3.15;;
74328;SDS011;62745;51.060;13.786;2024-03-22T10:27:56;5.65;;;2.58;;
74328;SDS011;62745;51.060;13.786;2024-03-22T10:30:22;6.68;;;3.08;;
74328;SDS011;62745;51.060;13.786;2024-03-22T10:32:50;5.28;;;2.30;;
74328;SDS011;62745;51.060;13.786;2024-03-22T10:35:15;5.80;;;2.53;;
74328;SDS011;62745;51.060;13.786;2024-03-22T10:37:42;6.43;;;2.83;;
74328;SDS011;62745;51.060;13.786;2024-03-22T10:40:08;6.03;;;2.35;;
74328;SDS011;62745;51.060;13.786;2024-03-22T10:42:35;6.25;;;2.50;;
74328;SDS011;62745;51.060;13.786;2024-03-22T10:45:02;8.40;;;2.70;;
74328;SDS011;62745;51.060;13.786;2024-03-22T10:47:30;6.20;;;2.40;;
74328;SDS011;62745;51.060;13.786;2024-03-22T10:50:14;6.15;;;2.55;;
74328;SDS011;62745;51.060;13.786;2024-03-22T10:52:48;8.95;;;2.60;;
74328;SDS011;62745;51.060;13.786;2024-03-22T10:55:24;6.22;;;2.40;;
74328;SDS011;62745;51.060;13.786;2024-03-22T10:57:59;5.40;;;2.20;;
74328;SDS011;62745;51.060;13.786;2024-03-22T11:00:28;6.72;;;2.83;;
74328;SDS011;62745;51.060;13.786;2024-03-22T11:02:55;8.13;;;2.72;;
74328;SDS011;62745;51.060;13.786;2024-03-22T11:05:20;5.95;;;3.00;;
74328;SDS011;62745;51.060;13.786;2024-03-22T11:07:46;6.38;;;2.25;;
74328;SDS011;62745;51.060;13.786;2024-03-22T11:10:13;6.57;;;2.40;;
74328;SDS011;62745;51.060;13.786;2024-03-22T11:12:39;6.97;;;2.30;;
74328;SDS011;62745;51.060;13.786;2024-03-22T11:15:05;6.20;;;2.75;;
74328;SDS011;62745;51.060;13.786;2024-03-22T11:17:31;5.70;;;2.40;;
74328;SDS011;62745;51.060;13.786;2024-03-22T11:19:57;5.50;;;2.00;;
74328;SDS011;62745;51.060;13.786;2024-03-22T11:22:22;4.32;;;1.83;;
74328;SDS011;62745;51.060;13.786;2024-03-22T11:24:50;7.18;;;2.80;;
74328;SDS011;62745;51.060;13.786;2024-03-22T11:27:15;5.40;;;2.00;;
74328;SDS011;62745;51.060;13.786;2024-03-22T11:29:41;6.60;;;2.53;;
74328;SDS011;62745;51.060;13.786;2024-03-22T11:32:07;6.40;;;3.17;;
74328;SDS011;62745;51.060;13.786;2024-03-22T11:34:36;6.38;;;2.88;;
74328;SDS011;62745;51.060;13.786;2024-03-22T11:37:03;6.40;;;2.45;;
74328;SDS011;62745;51.060;13.786;2024-03-22T11:39:30;5.95;;;2.30;;
74328;SDS011;62745;51.060;13.786;2024-03-22T11:41:55;6.30;;;2.33;;
74328;SDS011;62745;51.060;13.786;2024-03-22T11:44:22;5.97;;;2.55;;
74328;SDS011;62745;51.060;13.786;2024-03-22T11:46:51;5.25;;;2.45;;
74328;SDS011;62745;51.060;13.786;2024-03-22T11:49:17;6.13;;;2.30;;
74328;SDS011;62745;51.060;13.786;2024-03-22T11:51:44;6.63;;;2.80;;
74328;SDS011;62745;51.060;13.786;2024-03-22T11:54:10;6.57;;;2.30;;
74328;SDS011;62745;51.060;13.786;2024-03-22T11:56:36;6.35;;;2.60;;
74328;SDS011;62745;51.060;13.786;2024-03-22T11:59:01;7.00;;;2.88;;
74328;SDS011;62745;51.060;13.786;2024-03-22T12:01:28;6.22;;;2.47;;
74328;SDS011;62745;51.060;13.786;2024-03-22T12:03:55;4.97;;;2.30;;
74328;SDS011;62745;51.060;13.786;2024-03-22T12:06:21;5.63;;;2.28;;
74328;SDS011;62745;51.060;13.786;2024-03-22T12:08:47;6.35;;;2.38;;
74328;SDS011;62745;51.060;13.786;2024-03-22T12:11:12;4.88;;;2.20;;
74328;SDS011;62745;51.060;13.786;2024-03-22T12:13:38;6.80;;;2.47;;
74328;SDS011;62745;51.060;13.786;2024-03-22T12:16:04;6.85;;;2.40;;
74328;SDS011;62745;51.060;13.786;2024-03-22T12:18:30;6.75;;;2.67;;
74328;SDS011;62745;51.060;13.786;2024-03-22T12:20:56;8.52;;;2.88;;
74328;SDS011;62745;51.060;13.786;2024-03-22T12:23:22;6.20;;;2.83;;
74328;SDS011;62745;51.060;13.786;2024-03-22T12:25:47;6.03;;;2.40;;
74328;SDS011;62745;51.060;13.786;2024-03-22T12:28:14;5.75;;;2.22;;
74328;SDS011;62745;51.060;13.786;2024-03-22T12:30:40;5.35;;;2.45;;
74328;SDS011;62745;51.060;13.786;2024-03-22T12:33:05;7.75;;;2.88;;
74328;SDS011;62745;51.060;13.786;2024-03-22T12:35:35;6.07;;;2.88;;
74328;SDS011;62745;51.060;13.786;2024-03-22T12:38:02;6.90;;;2.70;;
74328;SDS011;62745;51.060;13.786;2024-03-22T12:40:28;6.47;;;2.70;;
74328;SDS011;62745;51.060;13.786;2024-03-22T12:42:55;7.72;;;2.70;;
74328;SDS011;62745;51.060;13.786;2024-03-22T12:45:21;6.28;;;2.65;;
74328;SDS011;62745;51.060;13.786;2024-03-22T12:47:47;6.22;;;2.53;;
74328;SDS011;62745;51.060;13.786;2024-03-22T12:50:12;8.00;;;2.72;;
74328;SDS011;62745;51.060;13.786;2024-03-22T12:52:38;6.82;;;2.53;;
74328;SDS011;62745;51.060;13.786;2024-03-22T12:55:04;6.03;;;2.80;;
74328;SDS011;62745;51.060;13.786;2024-03-22T12:57:31;7.25;;;2.63;;
74328;SDS011;62745;51.060;13.786;2024-03-22T12:59:57;7.30;;;2.90;;
74328;SDS011;62745;51.060;13.786;2024-03-22T13:02:23;6.72;;;2.85;;
74328;SDS011;62745;51.060;13.786;2024-03-22T13:04:51;7.75;;;2.55;;
74328;SDS011;62745;51.060;13.786;2024-03-22T13:07:19;8.32;;;2.97;;
74328;SDS011;62745;51.060;13.786;2024-03-22T13:09:45;8.30;;;3.10;;
74328;SDS011;62745;51.060;13.786;2024-03-22T13:12:10;8.80;;;3.33;;
74328;SDS011;62745;51.060;13.786;2024-03-22T13:14:36;7.35;;;3.13;;
74328;SDS011;62745;51.060;13.786;2024-03-22T13:17:01;5.15;;;2.35;;
74328;SDS011;62745;51.060;13.786;2024-03-22T13:19:27;6.50;;;3.10;;
74328;SDS011;62745;51.060;13.786;2024-03-22T13:21:52;7.38;;;3.00;;
74328;SDS011;62745;51.060;13.786;2024-03-22T13:24:18;6.57;;;3.03;;
74328;SDS011;62745;51.060;13.786;2024-03-22T13:26:44;6.43;;;2.83;;
74328;SDS011;62745;51.060;13.786;2024-03-22T13:29:10;7.22;;;2.83;;
74328;SDS011;62745;51.060;13.786;2024-03-22T13:31:35;7.15;;;2.63;;
74328;SDS011;62745;51.060;13.786;2024-03-22T13:34:01;6.50;;;2.80;;
74328;SDS011;62745;51.060;13.786;2024-03-22T13:36:27;5.88;;;2.85;;
74328;SDS011;62745;51.060;13.786;2024-03-22T13:38:53;8.50;;;3.40;;
74328;SDS011;62745;51.060;13.786;2024-03-22T13:41:18;6.97;;;2.92;;
74328;SDS011;62745;51.060;13.786;2024-03-22T13:43:44;9.27;;;3.20;;
74328;SDS011;62745;51.060;13.786;2024-03-22T13:46:09;7.75;;;3.22;;
74328;SDS011;62745;51.060;13.786;2024-03-22T13:48:40;7.40;;;3.47;;
74328;SDS011;62745;51.060;13.786;2024-03-22T13:51:05;6.30;;;2.85;;
74328;SDS011;62745;51.060;13.786;2024-03-22T13:53:31;7.13;;;3.38;;
74328;SDS011;62745;51.060;13.786;2024-03-22T13:55:56;11.68;;;3.10;;
74328;SDS011;62745;51.060;13.786;2024-03-22T13:58:22;7.30;;;3.20;;
74328;SDS011;62745;51.060;13.786;2024-03-22T14:00:47;7.60;;;3.47;;
74328;SDS011;62745;51.060;13.786;2024-03-22T14:03:13;8.15;;;3.47;;
74328;SDS011;62745;51.060;13.786;2024-03-22T14:05:38;8.55;;;3.50;;
74328;SDS011;62745;51.060;13.786;2024-03-22T14:08:04;8.23;;;3.50;;
74328;SDS011;62745;51.060;13.786;2024-03-22T14:10:30;7.30;;;3.40;;
74328;SDS011;62745;51.060;13.786;2024-03-22T14:12:58;7.95;;;3.65;;
74328;SDS011;62745;51.060;13.786;2024-03-22T14:15:24;8.25;;;3.45;;
74328;SDS011;62745;51.060;13.786;2024-03-22T14:17:52;8.38;;;3.33;;
74328;SDS011;62745;51.060;13.786;2024-03-22T14:20:18;7.63;;;3.00;;
74328;SDS011;62745;51.060;13.786;2024-03-22T14:22:45;8.75;;;3.33;;
74328;SDS011;62745;51.060;13.786;2024-03-22T14:25:11;8.73;;;3.67;;